Latest Weather Observations for Rottnest Island

IDW60901

Issued at 7:51 pm WST Thursday 22 June 2017 (issued every 10 minutes, with the page automatically refreshed every 10 minutes)

About weather observations | Map of Perth area stations | Latest observations for Perth area | Other Formats
Station Details ID: 009193 Name: ROTTNEST ISLAND Lat: -32.01 Lon: 115.50 Height: 43.1 m
Data from the previous 72 hours. | See also: Recent months at Rottnest Island
Date/Time
WST
Temp
°C
App
Temp
°C
Dew
Point
°C
Rel
Hum
%
Delta-T
°C
Wind Press
QNH
hPa
Press
MSL
hPa
Rain since
9am
mm
Dir  Spd
km/h
Gust
km/h
Spd
kts
Gust
kts
22/07:30pm 14.8 3.3 11.6 81 1.7 S 63 83 34 45 1010.1 1010.0 0.0
22/07:00pm 14.9 3.3 11.3 79 1.9 SSE 63 83 34 45 1010.7 1010.6 0.0
22/06:36pm 15.7 5.3 11.3 75 2.4 SSE 57 76 31 41 1010.8 1010.7 0.0
22/06:30pm 15.3 4.3 10.7 74 2.4 S 59 76 32 41 1010.3 1010.2 0.0
22/06:03pm 16.1 3.8 10.0 67 3.2 S 65 83 35 45 1010.0 1009.9 0.0
22/06:00pm 16.2 3.9 10.1 67 3.2 S 65 80 35 43 1009.9 1009.8 0.0
22/05:30pm 16.8 6.8 10.6 67 3.3 S 54 78 29 42 1009.6 1009.5 0.0
22/05:29pm 17.0 7.8 10.8 67 3.3 S 50 69 27 37 1010.4 1010.3 0.0
22/05:00pm 16.9 7.7 11.0 68 3.2 S 50 61 27 33 1010.2 1010.1 0.0
22/04:48pm 16.9 8.6 11.4 70 3.0 S 46 65 25 35 1010.1 1010.0 0.0
22/04:30pm 16.7 7.8 11.8 73 2.7 S 50 61 27 33 1009.5 1009.4 0.0
22/04:00pm 16.5 8.2 11.4 72 2.8 S 46 59 25 32 1009.5 1009.4 0.0
22/03:30pm 16.3 8.5 11.7 74 2.5 S 44 56 24 30 1009.2 1009.1 0.0
22/03:00pm 16.2 8.0 11.6 74 2.5 S 46 59 25 32 1008.6 1008.5 0.0
22/02:30pm 16.4 8.7 12.2 76 2.3 S 44 57 24 31 1008.4 1008.3 0.0
22/02:00pm 16.5 8.8 11.6 73 2.7 SSW 43 54 23 29 1008.4 1008.3 0.0
22/01:30pm 16.5 9.4 12.3 76 2.3 SSW 41 56 22 30 1008.2 1008.1 0.0
22/01:00pm 16.0 8.3 12.2 78 2.1 SSW 44 63 24 34 1008.0 1007.9 0.0
22/12:47pm 16.0 8.4 12.4 79 2.0 SSW 44 63 24 34 1007.7 1007.7 0.0
22/12:30pm 16.8 9.0 11.9 73 2.7 SSW 44 56 24 30 1007.4 1007.4 0.0
22/12:00pm 16.7 9.1 11.8 73 2.7 SSW 43 54 23 29 1007.6 1007.6 0.0
22/11:30am 16.4 8.7 12.2 76 2.3 SSW 44 54 24 29 1007.6 1007.6 0.0
22/11:00am 16.5 9.6 12.7 78 2.1 SW 41 50 22 27 1007.5 1007.5 0.0
22/10:30am 16.5 10.0 13.0 80 2.0 SSW 39 50 21 27 1007.0 1007.0 0.0
22/10:00am 16.2 8.4 12.9 81 1.8 SW 46 57 25 31 1006.2 1006.2 0.0
22/09:30am 16.2 8.6 13.7 85 1.4 SW 46 57 25 31 1005.9 1005.9 0.0
22/09:00am 16.6 8.1 13.3 81 1.9 WSW 50 65 27 35 1005.5 1005.5 -
22/08:30am 16.6 7.6 13.9 84 1.5 SW 54 65 29 35 1004.7 1004.7 30.4
22/08:03am 16.9 7.0 14.2 84 1.5 SW 59 78 32 42 1004.0 1004.0 30.4
22/08:00am 17.0 6.4 14.3 84 1.6 WSW 63 78 34 42 1004.0 1004.0 30.4
22/07:30am 17.1 7.8 14.2 83 1.7 WSW 56 74 30 40 1003.4 1003.4 30.4
22/07:00am 17.2 8.2 13.9 81 1.9 W 54 80 29 43 1002.7 1002.7 30.4
22/06:30am 17.3 8.3 14.0 81 1.9 W 54 78 29 42 1002.9 1002.9 30.4
22/06:00am 17.5 9.3 14.0 80 2.0 W 50 70 27 38 1003.0 1003.0 30.4
22/05:32am 17.8 10.4 14.3 80 2.0 W 46 65 25 35 1003.2 1003.2 30.4
22/05:30am 17.8 10.1 14.5 81 1.9 WNW 48 65 26 35 1003.3 1003.3 30.4
22/05:00am 17.6 9.5 14.3 81 1.9 WNW 50 69 27 37 1003.5 1003.5 30.4
22/04:43am 17.2 9.1 14.3 83 1.7 WNW 50 69 27 37 1003.5 1003.5 30.4
22/04:30am 17.1 9.7 14.2 83 1.7 WNW 46 59 25 32 1003.9 1003.9 30.4
22/04:03am 17.1 10.0 13.4 79 2.1 WNW 43 63 23 34 1004.5 1004.5 30.4
22/04:00am 17.1 10.4 13.4 79 2.1 WNW 41 52 22 28 1004.7 1004.7 30.4
22/03:52am 16.8 11.4 13.9 83 1.6 WNW 35 50 19 27 1004.9 1004.9 30.4
22/03:36am 15.4 6.9 14.4 94 0.6 NNW 52 70 28 38 1004.9 1004.9 29.6
22/03:30am 15.3 5.6 13.7 90 0.9 NNW 57 72 31 39 1004.4 1004.4 28.2
22/03:00am 15.6 5.6 13.8 89 1.0 NW 59 82 32 44 1005.2 1005.2 25.4
22/02:46am 16.7 7.5 13.4 81 1.9 NW 54 72 29 39 1005.5 1005.5 25.2
22/02:30am 16.8 7.8 12.9 78 2.2 NW 52 67 28 36 1005.9 1005.9 25.2
22/02:00am 16.5 7.5 12.8 79 2.1 NW 52 63 28 34 1006.8 1006.8 25.2
22/01:36am 16.4 8.1 13.7 84 1.5 NW 50 72 27 39 1007.5 1007.5 21.8
22/01:30am 16.4 7.7 12.6 78 2.1 NW 50 65 27 35 1007.4 1007.4 21.8
22/01:00am 14.9 7.6 12.9 88 1.1 NW 43 59 23 32 1008.5 1008.4 21.8
22/12:47am 16.2 9.5 13.3 83 1.6 NW 41 69 22 37 1008.5 1008.4 19.2
22/12:30am 16.1 10.3 12.7 80 1.9 NNW 35 50 19 27 1009.0 1008.9 18.8
22/12:00am 14.9 8.8 11.9 82 1.6 NW 35 48 19 26 1010.1 1010.0 18.8
 
Date/Time
WST
Temp
°C
App
Temp
°C
Dew
Point
°C
Rel
Hum
%
Delta-T
°C
Wind Press
QNH
hPa
Press
MSL
hPa
Rain since
9am
mm
Dir  Spd
km/h
Gust
km/h
Spd
kts
Gust
kts
21/11:30pm 13.5 6.7 11.9 90 0.9 NW 39 57 21 31 1010.6 1010.5 18.4
21/11:23pm 15.1 9.6 12.6 85 1.4 NW 33 57 18 31 1010.4 1010.3 14.6
21/11:00pm 14.7 9.0 12.9 89 1.0 WNW 35 44 19 24 1010.5 1010.4 14.6
21/10:30pm 14.9 8.3 12.6 86 1.3 NW 39 50 21 27 1011.0 1010.9 13.2
21/10:00pm 14.5 9.0 12.5 88 1.1 NW 33 43 18 23 1011.6 1011.5 10.6
21/09:30pm 14.8 10.4 12.8 88 1.1 NNW 28 39 15 21 1011.9 1011.8 7.2
21/09:00pm 14.2 7.6 12.6 90 0.9 NW 39 59 21 32 1012.2 1012.1 5.4
21/08:56pm 14.5 8.8 12.9 90 0.9 NW 35 59 19 32 1011.9 1011.8 5.0
21/08:30pm 15.4 7.1 12.5 83 1.6 NW 48 59 26 32 1011.9 1011.8 2.6
21/08:13pm 14.8 8.0 13.0 89 1.0 NW 41 54 22 29 1011.9 1011.8 2.6
21/08:00pm 14.3 4.0 11.8 85 1.3 NW 57 76 31 41 1011.8 1011.7 1.8
21/07:55pm 14.5 5.4 12.4 87 1.1 NW 52 76 28 41 1011.4 1011.3 1.2
21/07:30pm 16.4 9.0 13.1 81 1.8 NW 44 72 24 39 1011.6 1011.5 0.8
21/07:25pm 16.3 8.2 11.9 75 2.4 NNW 46 72 25 39 1011.6 1011.5 0.4
21/07:00pm 17.1 9.2 11.6 70 3.0 NW 44 54 24 29 1011.8 1011.7 0.4
21/06:30pm 16.7 9.1 12.3 75 2.4 NW 44 61 24 33 1012.0 1011.9 0.4
21/06:00pm 16.7 9.5 12.0 74 2.6 NW 41 56 22 30 1011.9 1011.8 0.4
21/05:30pm 16.1 8.9 11.9 76 2.3 NW 41 59 22 32 1011.9 1011.8 0.4
21/05:29pm 16.4 9.2 12.0 75 2.4 NW 41 59 22 32 1011.9 1011.8 0.4
21/05:00pm 16.9 9.2 11.4 70 3.0 NNW 43 54 23 29 1012.2 1012.1 0.4
21/04:39pm 16.0 8.2 11.0 72 2.7 NNW 43 61 23 33 1012.4 1012.3 0.4
21/04:30pm 15.9 7.6 11.5 75 2.4 NNW 46 57 25 31 1012.3 1012.2 0.4
21/04:00pm 17.2 9.4 11.0 67 3.3 NW 43 59 23 32 1012.5 1012.4 0.4
21/03:58pm 17.6 10.2 11.2 66 3.5 NW 41 59 22 32 1012.4 1012.3 0.4
21/03:30pm 17.4 9.9 10.8 65 3.5 NW 41 52 22 28 1012.7 1012.6 0.4
21/03:12pm 17.2 10.2 11.2 68 3.2 NW 39 57 21 31 1012.8 1012.7 0.4
21/03:00pm 17.4 9.9 10.8 65 3.5 NW 41 52 22 28 1012.8 1012.7 0.4
21/02:30pm 17.9 10.8 11.0 64 3.7 NW 39 54 21 29 1012.8 1012.7 0.4
21/02:00pm 15.4 7.1 11.4 77 2.2 NW 46 65 25 35 1012.9 1012.8 0.4
21/01:41pm 16.8 9.3 10.9 68 3.2 NW 41 67 22 36 1012.9 1012.8 0.0
21/01:30pm 17.6 11.8 11.4 67 3.4 NW 33 46 18 25 1013.4 1013.3 0.0
21/01:00pm 17.1 9.7 10.0 63 3.8 NW 39 54 21 29 1013.6 1013.5 0.0
21/12:30pm 18.6 10.9 10.2 58 4.5 NW 41 50 22 27 1013.9 1013.8 0.0
21/12:00pm 18.8 11.1 8.7 52 5.3 NW 39 50 21 27 1014.2 1014.1 0.0
21/11:30am 17.8 10.7 9.7 59 4.3 NW 37 46 20 25 1014.9 1014.8 0.0
21/11:00am 18.8 11.8 8.5 51 5.3 NW 35 44 19 24 1015.3 1015.2 0.0
21/10:30am 18.5 11.8 9.8 57 4.6 NW 35 46 19 25 1015.5 1015.4 0.0
21/10:00am 18.2 11.6 8.7 54 4.9 NW 33 41 18 22 1015.9 1015.8 0.0
21/09:30am 17.7 11.6 9.6 59 4.3 NW 32 41 17 22 1015.9 1015.8 0.0
21/09:00am 17.5 10.7 9.2 58 4.3 NW 35 46 19 25 1015.8 1015.7 -
21/08:30am 17.2 12.0 10.3 64 3.7 WNW 28 37 15 20 1016.0 1015.9 -
21/08:00am 16.8 11.1 9.7 63 3.7 NW 30 39 16 21 1015.8 1015.7 -
21/07:30am 16.6 10.5 9.8 64 3.6 NW 32 41 17 22 1015.7 1015.6 -
21/07:00am 16.6 10.2 9.3 62 3.8 NW 33 44 18 24 1015.3 1015.2 -
21/06:40am 16.7 10.9 9.6 63 3.7 NNW 30 37 16 20 1015.5 1015.4 -
21/06:30am 16.5 10.8 11.0 70 3.0 NW 32 43 17 23 1015.2 1015.1 -
21/06:00am 16.9 10.4 9.1 60 4.0 NW 33 43 18 23 1015.1 1015.0 -
21/05:30am 16.8 10.6 9.5 62 3.8 NW 32 41 17 22 1014.9 1014.8 -
21/05:00am 16.8 11.2 10.0 64 3.6 NW 30 39 16 21 1014.9 1014.8 -
21/04:30am 15.3 10.2 10.7 74 2.4 WNW 28 41 15 22 1015.1 1015.0 -
21/04:11am 16.4 11.1 11.1 71 2.8 NW 30 48 16 26 1014.8 1014.7 -
21/04:00am 17.1 11.6 9.0 59 4.2 NW 28 35 15 19 1014.9 1014.8 -
21/03:30am 17.0 12.3 9.4 61 4.0 NW 24 30 13 16 1015.2 1015.1 -
21/03:00am 16.9 12.0 10.1 64 3.6 NW 26 32 14 17 1015.6 1015.5 0.0
21/02:30am 16.8 10.7 10.4 66 3.4 WNW 33 39 18 21 1015.6 1015.5 -
21/02:00am 17.1 12.5 9.8 62 3.8 NW 24 32 13 17 1015.7 1015.6 -
21/01:30am 16.6 11.7 11.3 71 2.9 NW 28 43 15 23 1015.9 1015.8 -
21/01:00am 16.9 12.3 11.0 68 3.2 WNW 26 32 14 17 1015.8 1015.7 -
21/12:30am 16.5 11.2 11.2 71 2.9 WNW 30 39 16 21 1016.0 1015.9 -
21/12:00am 16.3 10.8 12.5 78 2.1 WNW 33 44 18 24 1016.0 1015.9 -
 
Date/Time
WST
Temp
°C
App
Temp
°C
Dew
Point
°C
Rel
Hum
%
Delta-T
°C
Wind Press
QNH
hPa
Press
MSL
hPa
Rain since
9am
mm
Dir  Spd
km/h
Gust
km/h
Spd
kts
Gust
kts
20/11:30pm 16.3 11.0 13.2 82 1.7 WNW 33 44 18 24 1016.2 1016.1 -
20/11:00pm 18.1 12.7 11.0 63 3.8 NW 30 39 16 21 1016.2 1016.1 -
20/10:30pm 18.2 13.4 11.7 66 3.6 NW 28 35 15 19 1016.4 1016.3 -
20/10:00pm 17.9 12.7 11.7 67 3.4 NW 30 39 16 21 1016.4 1016.3 -
20/09:30pm 17.9 13.0 12.6 71 3.0 NW 30 41 16 22 1016.4 1016.3 -
20/09:00pm 18.5 13.9 12.3 67 3.4 NNW 28 37 15 20 1016.4 1016.3 -
20/08:30pm 18.2 12.7 12.0 67 3.4 NW 32 39 17 21 1016.3 1016.2 -
20/08:00pm 18.5 13.6 12.5 68 3.3 NNW 30 37 16 20 1016.3 1016.2 -
20/07:30pm 18.4 13.3 11.9 66 3.6 NNW 30 37 16 20 1016.3 1016.2 -
20/07:00pm 18.4 13.5 11.2 63 3.9 NNW 28 35 15 19 1016.2 1016.1 -
20/06:30pm 18.4 13.5 11.2 63 3.9 NNW 28 37 15 20 1016.1 1016.0 -
20/06:00pm 18.4 13.6 11.7 65 3.7 NNW 28 35 15 19 1015.9 1015.8 -
20/05:30pm 18.1 13.5 11.2 64 3.8 NNW 26 33 14 18 1015.7 1015.6 -
20/05:00pm 18.8 13.7 10.6 59 4.4 NNW 28 35 15 19 1015.8 1015.7 -
20/04:30pm 19.2 14.3 11.3 60 4.3 NNW 28 35 15 19 1015.8 1015.7 -
20/04:00pm 19.5 13.9 11.5 60 4.4 NNW 32 41 17 22 1016.0 1015.9 -
20/12:30pm 20.0 15.4 12.3 61 4.3 N 28 35 15 19 1016.8 1016.7 -
20/09:30am 17.2 14.5 12.9 76 2.4 NNE 19 24 10 13 1019.1 1019.0 0.0
20/09:00am 16.5 13.1 12.5 77 2.2 NE 22 32 12 17 1018.8 1018.7 0.2
20/08:30am 16.2 12.6 12.9 81 1.8 NE 24 32 13 17 1018.7 1018.6 0.2
20/08:00am 15.6 12.3 12.9 84 1.5 NE 22 30 12 16 1018.5 1018.4 0.2
20/07:30am 15.7 12.9 13.2 85 1.4 NE 20 28 11 15 1018.5 1018.4 0.2
20/07:00am 15.6 12.8 13.3 86 1.3 NE 20 26 11 14 1018.3 1018.2 0.2
20/06:30am 15.6 13.3 13.1 85 1.4 ENE 17 20 9 11 1018.3 1018.2 0.2
20/06:00am 16.8 13.9 13.9 83 1.6 NE 22 30 12 16 1017.8 1017.7 0.2
20/05:30am 16.9 14.5 14.4 85 1.4 NNE 20 24 11 13 1017.8 1017.7 0.2
20/05:00am 16.3 13.8 14.1 87 1.2 NNE 20 26 11 14 1017.9 1017.8 0.2
20/04:30am 16.0 14.0 14.0 88 1.1 NNE 17 24 9 13 1018.0 1017.9 0.2
20/04:00am 16.3 14.3 13.8 85 1.4 ENE 17 20 9 11 1018.3 1018.2 0.2
20/03:30am 16.6 14.6 13.9 84 1.5 NNE 17 20 9 11 1018.4 1018.3 0.2
20/03:00am 16.7 14.6 13.6 82 1.7 NNE 17 20 9 11 1018.6 1018.5 0.2
20/02:30am 17.1 15.7 13.4 79 2.1 NE 13 17 7 9 1018.7 1018.6 0.2
20/02:00am 17.3 15.5 13.2 77 2.3 NE 15 19 8 10 1018.8 1018.7 0.2
20/01:30am 17.5 15.3 13.4 77 2.3 NE 17 20 9 11 1018.9 1018.8 0.2
20/01:00am 17.3 16.3 12.4 73 2.7 NNE 9 11 5 6 1019.2 1019.1 0.2
20/12:30am 17.7 15.6 12.4 71 2.9 NE 15 17 8 9 1019.3 1019.2 0.0
20/12:00am 18.4 18.9 11.7 65 3.7 CALM 0 0 0 0 1019.7 1019.6 0.0
 
Date/Time
WST
Temp
°C
App
Temp
°C
Dew
Point
°C
Rel
Hum
%
Delta-T
°C
Wind Press
QNH
hPa
Press
MSL
hPa
Rain since
9am
mm
Dir  Spd
km/h
Gust
km/h
Spd
kts
Gust
kts
19/11:30pm 18.5 19.0 11.6 64 3.8 CALM 0 0 0 0 1019.7 1019.6 0.0
19/11:00pm 18.2 18.7 11.7 66 3.6 CALM 0 0 0 0 1020.0 1020.0 0.0
19/10:30pm 18.1 18.2 11.4 65 3.7 SW 2 6 1 3 1020.2 1020.2 0.0
19/10:00pm 18.3 18.9 11.8 66 3.6 CALM 0 0 0 0 1020.3 1020.3 0.0
19/09:30pm 18.1 17.6 11.9 67 3.4 WSW 6 7 3 4 1020.4 1020.4 0.0
19/09:00pm 18.0 17.2 11.8 67 3.4 SW 7 9 4 5 1020.4 1020.4 0.0
19/08:30pm 17.8 16.6 11.6 67 3.4 SW 9 11 5 6 1020.4 1020.4 0.0
19/08:00pm 18.0 16.8 11.6 66 3.5 SW 9 11 5 6 1020.4 1020.4 0.0

Latest Capital City Observations: Canberra | Sydney | Melbourne | Brisbane | Adelaide | Perth | Hobart | Darwin

Other Formats:

Comma delimited format used in spreadsheet applications
http://www.bom.gov.au/fwo/IDW60901/IDW60901.94602.axf

JavaScript Object Notation format (JSON) in row-major order
http://www.bom.gov.au/fwo/IDW60901/IDW60901.94602.json